sensor_id;sensor_type;location;lat;lon;timestamp;P1;durP1;ratioP1;P2;durP2;ratioP2
20888;SDS011;10604;51.976;7.594;2023-01-28T00:02:22;6.13;;;5.43;;
20888;SDS011;10604;51.976;7.594;2023-01-28T00:04:48;5.30;;;4.80;;
20888;SDS011;10604;51.976;7.594;2023-01-28T00:07:13;5.60;;;5.10;;
20888;SDS011;10604;51.976;7.594;2023-01-28T00:09:39;5.60;;;5.10;;
20888;SDS011;10604;51.976;7.594;2023-01-28T00:12:04;5.78;;;5.28;;
20888;SDS011;10604;51.976;7.594;2023-01-28T00:14:30;5.18;;;4.78;;
20888;SDS011;10604;51.976;7.594;2023-01-28T00:16:55;4.63;;;4.23;;
20888;SDS011;10604;51.976;7.594;2023-01-28T00:19:21;5.70;;;5.20;;
20888;SDS011;10604;51.976;7.594;2023-01-28T00:21:47;5.68;;;5.18;;
20888;SDS011;10604;51.976;7.594;2023-01-28T00:24:12;7.70;;;4.90;;
20888;SDS011;10604;51.976;7.594;2023-01-28T00:26:37;5.37;;;4.90;;
20888;SDS011;10604;51.976;7.594;2023-01-28T00:29:03;6.03;;;5.00;;
20888;SDS011;10604;51.976;7.594;2023-01-28T00:31:29;5.60;;;4.80;;
20888;SDS011;10604;51.976;7.594;2023-01-28T00:33:55;5.78;;;5.28;;
20888;SDS011;10604;51.976;7.594;2023-01-28T00:36:22;5.70;;;5.10;;
20888;SDS011;10604;51.976;7.594;2023-01-28T00:38:49;5.70;;;5.20;;
20888;SDS011;10604;51.976;7.594;2023-01-28T00:41:20;6.03;;;5.43;;
20888;SDS011;10604;51.976;7.594;2023-01-28T00:43:47;5.78;;;5.28;;
20888;SDS011;10604;51.976;7.594;2023-01-28T00:46:14;5.70;;;5.20;;
20888;SDS011;10604;51.976;7.594;2023-01-28T00:48:40;5.70;;;5.20;;
20888;SDS011;10604;51.976;7.594;2023-01-28T00:51:07;6.22;;;5.72;;
20888;SDS011;10604;51.976;7.594;2023-01-28T00:53:34;5.80;;;5.30;;
20888;SDS011;10604;51.976;7.594;2023-01-28T00:56:01;5.55;;;5.05;;
20888;SDS011;10604;51.976;7.594;2023-01-28T00:58:27;5.68;;;5.20;;
20888;SDS011;10604;51.976;7.594;2023-01-28T01:00:53;5.40;;;4.90;;
20888;SDS011;10604;51.976;7.594;2023-01-28T01:03:18;5.38;;;4.93;;
20888;SDS011;10604;51.976;7.594;2023-01-28T01:05:44;5.37;;;4.70;;
20888;SDS011;10604;51.976;7.594;2023-01-28T01:08:10;5.47;;;4.97;;
20888;SDS011;10604;51.976;7.594;2023-01-28T01:10:36;5.65;;;5.10;;
20888;SDS011;10604;51.976;7.594;2023-01-28T01:13:04;5.63;;;5.13;;
20888;SDS011;10604;51.976;7.594;2023-01-28T01:15:30;5.30;;;4.80;;
20888;SDS011;10604;51.976;7.594;2023-01-28T01:17:56;5.20;;;4.80;;
20888;SDS011;10604;51.976;7.594;2023-01-28T01:20:23;5.32;;;4.70;;
20888;SDS011;10604;51.976;7.594;2023-01-28T01:22:50;5.65;;;4.88;;
20888;SDS011;10604;51.976;7.594;2023-01-28T01:25:16;4.75;;;4.35;;
20888;SDS011;10604;51.976;7.594;2023-01-28T01:27:43;4.73;;;4.33;;
20888;SDS011;10604;51.976;7.594;2023-01-28T01:30:12;5.03;;;4.57;;
20888;SDS011;10604;51.976;7.594;2023-01-28T01:32:38;5.10;;;4.60;;
20888;SDS011;10604;51.976;7.594;2023-01-28T01:35:03;4.80;;;4.40;;
20888;SDS011;10604;51.976;7.594;2023-01-28T01:37:31;4.88;;;4.47;;
20888;SDS011;10604;51.976;7.594;2023-01-28T01:39:57;5.03;;;4.53;;
20888;SDS011;10604;51.976;7.594;2023-01-28T01:42:23;4.73;;;4.37;;
20888;SDS011;10604;51.976;7.594;2023-01-28T01:44:52;5.00;;;4.50;;
20888;SDS011;10604;51.976;7.594;2023-01-28T01:47:23;4.88;;;4.47;;
20888;SDS011;10604;51.976;7.594;2023-01-28T01:52:50;4.93;;;4.28;;
20888;SDS011;10604;51.976;7.594;2023-01-28T01:55:19;4.57;;;4.17;;
20888;SDS011;10604;51.976;7.594;2023-01-28T01:57:48;4.53;;;4.13;;
20888;SDS011;10604;51.976;7.594;2023-01-28T02:00:17;4.55;;;4.13;;
20888;SDS011;10604;51.976;7.594;2023-01-28T02:02:45;4.83;;;4.10;;
20888;SDS011;10604;51.976;7.594;2023-01-28T02:05:14;4.63;;;4.20;;
20888;SDS011;10604;51.976;7.594;2023-01-28T02:07:43;4.53;;;4.13;;
20888;SDS011;10604;51.976;7.594;2023-01-28T02:10:10;4.40;;;4.03;;
20888;SDS011;10604;51.976;7.594;2023-01-28T02:12:39;4.40;;;3.72;;
20888;SDS011;10604;51.976;7.594;2023-01-28T02:15:08;4.38;;;3.97;;
20888;SDS011;10604;51.976;7.594;2023-01-28T02:17:36;4.57;;;4.17;;
20888;SDS011;10604;51.976;7.594;2023-01-28T02:20:09;5.13;;;3.90;;
20888;SDS011;10604;51.976;7.594;2023-01-28T02:25:42;5.50;;;4.93;;
20888;SDS011;10604;51.976;7.594;2023-01-28T02:31:00;4.53;;;4.13;;
20888;SDS011;10604;51.976;7.594;2023-01-28T02:33:39;5.88;;;4.57;;
20888;SDS011;10604;51.976;7.594;2023-01-28T02:36:28;4.20;;;3.80;;
20888;SDS011;10604;51.976;7.594;2023-01-28T02:39:32;4.20;;;3.80;;
20888;SDS011;10604;51.976;7.594;2023-01-28T02:42:03;4.63;;;4.22;;
20888;SDS011;10604;51.976;7.594;2023-01-28T02:44:37;4.38;;;4.00;;
20888;SDS011;10604;51.976;7.594;2023-01-28T02:47:04;4.70;;;4.30;;
20888;SDS011;10604;51.976;7.594;2023-01-28T02:49:54;4.85;;;4.45;;
20888;SDS011;10604;51.976;7.594;2023-01-28T02:58:23;4.20;;;3.80;;
20888;SDS011;10604;51.976;7.594;2023-01-28T03:06:24;4.65;;;4.10;;
20888;SDS011;10604;51.976;7.594;2023-01-28T03:08:58;4.10;;;3.80;;
20888;SDS011;10604;51.976;7.594;2023-01-28T03:11:47;4.35;;;3.95;;
20888;SDS011;10604;51.976;7.594;2023-01-28T03:14:35;4.65;;;4.10;;
20888;SDS011;10604;51.976;7.594;2023-01-28T03:17:29;4.45;;;4.15;;
20888;SDS011;10604;51.976;7.594;2023-01-28T03:20:19;4.30;;;3.90;;
20888;SDS011;10604;51.976;7.594;2023-01-28T03:23:07;4.57;;;4.18;;
20888;SDS011;10604;51.976;7.594;2023-01-28T03:25:55;5.03;;;4.53;;
20888;SDS011;10604;51.976;7.594;2023-01-28T03:28:43;4.90;;;4.40;;
20888;SDS011;10604;51.976;7.594;2023-01-28T03:31:30;4.30;;;3.87;;
20888;SDS011;10604;51.976;7.594;2023-01-28T03:34:16;4.60;;;4.20;;
20888;SDS011;10604;51.976;7.594;2023-01-28T03:37:03;4.25;;;3.88;;
20888;SDS011;10604;51.976;7.594;2023-01-28T03:39:28;4.43;;;4.03;;
20888;SDS011;10604;51.976;7.594;2023-01-28T03:41:55;4.55;;;4.00;;
20888;SDS011;10604;51.976;7.594;2023-01-28T03:44:23;5.05;;;3.70;;
20888;SDS011;10604;51.976;7.594;2023-01-28T03:47:08;4.40;;;4.00;;
20888;SDS011;10604;51.976;7.594;2023-01-28T03:49:37;4.97;;;4.10;;
20888;SDS011;10604;51.976;7.594;2023-01-28T03:52:06;4.00;;;3.70;;
20888;SDS011;10604;51.976;7.594;2023-01-28T03:54:32;4.65;;;4.18;;
20888;SDS011;10604;51.976;7.594;2023-01-28T03:56:57;4.50;;;4.10;;
20888;SDS011;10604;51.976;7.594;2023-01-28T03:59:23;5.00;;;4.50;;
20888;SDS011;10604;51.976;7.594;2023-01-28T04:01:48;4.93;;;4.53;;
20888;SDS011;10604;51.976;7.594;2023-01-28T04:04:14;5.20;;;4.70;;
20888;SDS011;10604;51.976;7.594;2023-01-28T04:06:47;5.30;;;4.80;;
20888;SDS011;10604;51.976;7.594;2023-01-28T04:09:13;5.30;;;4.85;;
20888;SDS011;10604;51.976;7.594;2023-01-28T04:11:39;5.30;;;4.63;;
20888;SDS011;10604;51.976;7.594;2023-01-28T04:14:04;5.75;;;5.18;;
20888;SDS011;10604;51.976;7.594;2023-01-28T04:16:29;4.80;;;4.40;;
20888;SDS011;10604;51.976;7.594;2023-01-28T04:18:55;5.17;;;4.70;;
20888;SDS011;10604;51.976;7.594;2023-01-28T04:21:21;5.40;;;4.90;;
20888;SDS011;10604;51.976;7.594;2023-01-28T04:23:47;5.22;;;4.72;;
20888;SDS011;10604;51.976;7.594;2023-01-28T04:26:12;5.13;;;4.70;;
20888;SDS011;10604;51.976;7.594;2023-01-28T04:28:38;6.17;;;4.90;;
20888;SDS011;10604;51.976;7.594;2023-01-28T04:31:03;5.20;;;4.70;;
20888;SDS011;10604;51.976;7.594;2023-01-28T04:33:28;5.00;;;4.60;;
20888;SDS011;10604;51.976;7.594;2023-01-28T04:35:54;5.30;;;4.80;;
20888;SDS011;10604;51.976;7.594;2023-01-28T04:38:19;5.47;;;4.93;;
20888;SDS011;10604;51.976;7.594;2023-01-28T04:40:47;5.47;;;4.97;;
20888;SDS011;10604;51.976;7.594;2023-01-28T04:43:14;5.45;;;4.95;;
20888;SDS011;10604;51.976;7.594;2023-01-28T04:45:39;5.33;;;4.60;;
20888;SDS011;10604;51.976;7.594;2023-01-28T04:48:04;5.25;;;4.38;;
20888;SDS011;10604;51.976;7.594;2023-01-28T04:50:30;5.10;;;4.60;;
20888;SDS011;10604;51.976;7.594;2023-01-28T04:52:55;4.90;;;4.50;;
20888;SDS011;10604;51.976;7.594;2023-01-28T04:55:21;5.07;;;4.60;;
20888;SDS011;10604;51.976;7.594;2023-01-28T04:57:46;5.70;;;5.10;;
20888;SDS011;10604;51.976;7.594;2023-01-28T05:00:14;6.55;;;5.30;;
20888;SDS011;10604;51.976;7.594;2023-01-28T05:02:40;6.97;;;5.67;;
20888;SDS011;10604;51.976;7.594;2023-01-28T05:05:05;6.30;;;5.40;;
20888;SDS011;10604;51.976;7.594;2023-01-28T05:07:33;10.52;;;6.10;;
20888;SDS011;10604;51.976;7.594;2023-01-28T05:09:58;6.30;;;5.70;;
20888;SDS011;10604;51.976;7.594;2023-01-28T05:12:24;5.75;;;5.20;;
20888;SDS011;10604;51.976;7.594;2023-01-28T05:14:49;5.83;;;5.27;;
20888;SDS011;10604;51.976;7.594;2023-01-28T05:17:14;5.03;;;4.53;;
20888;SDS011;10604;51.976;7.594;2023-01-28T05:19:40;5.63;;;4.70;;
20888;SDS011;10604;51.976;7.594;2023-01-28T05:22:05;5.40;;;4.90;;
20888;SDS011;10604;51.976;7.594;2023-01-28T05:24:30;5.87;;;4.90;;
20888;SDS011;10604;51.976;7.594;2023-01-28T05:26:56;5.60;;;5.07;;
20888;SDS011;10604;51.976;7.594;2023-01-28T05:29:21;5.70;;;5.17;;
20888;SDS011;10604;51.976;7.594;2023-01-28T05:31:47;5.93;;;5.33;;
20888;SDS011;10604;51.976;7.594;2023-01-28T05:34:12;5.77;;;5.27;;
20888;SDS011;10604;51.976;7.594;2023-01-28T05:36:37;5.40;;;4.80;;
20888;SDS011;10604;51.976;7.594;2023-01-28T05:39:05;6.05;;;5.50;;
20888;SDS011;10604;51.976;7.594;2023-01-28T05:41:31;6.25;;;5.65;;
20888;SDS011;10604;51.976;7.594;2023-01-28T05:43:57;5.45;;;4.95;;
20888;SDS011;10604;51.976;7.594;2023-01-28T05:46:22;6.17;;;5.40;;
20888;SDS011;10604;51.976;7.594;2023-01-28T05:48:49;6.32;;;5.72;;
20888;SDS011;10604;51.976;7.594;2023-01-28T05:51:15;8.52;;;6.93;;
20888;SDS011;10604;51.976;7.594;2023-01-28T05:53:40;6.80;;;6.20;;
20888;SDS011;10604;51.976;7.594;2023-01-28T05:56:06;7.37;;;6.63;;
20888;SDS011;10604;51.976;7.594;2023-01-28T05:58:32;6.38;;;5.70;;
20888;SDS011;10604;51.976;7.594;2023-01-28T06:00:57;6.60;;;5.87;;
20888;SDS011;10604;51.976;7.594;2023-01-28T06:03:23;5.90;;;5.30;;
20888;SDS011;10604;51.976;7.594;2023-01-28T06:05:48;6.25;;;5.65;;
20888;SDS011;10604;51.976;7.594;2023-01-28T06:08:14;6.60;;;5.40;;
20888;SDS011;10604;51.976;7.594;2023-01-28T06:10:39;6.20;;;5.60;;
20888;SDS011;10604;51.976;7.594;2023-01-28T06:13:05;5.97;;;5.43;;
20888;SDS011;10604;51.976;7.594;2023-01-28T06:15:30;6.20;;;5.60;;
20888;SDS011;10604;51.976;7.594;2023-01-28T06:17:56;7.37;;;5.90;;
20888;SDS011;10604;51.976;7.594;2023-01-28T06:20:21;6.25;;;5.55;;
20888;SDS011;10604;51.976;7.594;2023-01-28T06:22:48;6.13;;;5.53;;
20888;SDS011;10604;51.976;7.594;2023-01-28T06:25:15;6.53;;;5.43;;
20888;SDS011;10604;51.976;7.594;2023-01-28T06:27:41;6.15;;;5.43;;
20888;SDS011;10604;51.976;7.594;2023-01-28T06:30:06;6.87;;;5.57;;
20888;SDS011;10604;51.976;7.594;2023-01-28T06:32:32;6.93;;;5.70;;
20888;SDS011;10604;51.976;7.594;2023-01-28T06:34:57;5.63;;;5.13;;
20888;SDS011;10604;51.976;7.594;2023-01-28T06:37:23;7.20;;;5.43;;
20888;SDS011;10604;51.976;7.594;2023-01-28T06:39:48;5.95;;;5.28;;
20888;SDS011;10604;51.976;7.594;2023-01-28T06:42:14;5.70;;;5.10;;
20888;SDS011;10604;51.976;7.594;2023-01-28T06:44:39;5.80;;;5.23;;
20888;SDS011;10604;51.976;7.594;2023-01-28T06:47:04;5.87;;;5.23;;
20888;SDS011;10604;51.976;7.594;2023-01-28T06:49:30;12.43;;;10.50;;
20888;SDS011;10604;51.976;7.594;2023-01-28T06:51:55;15.03;;;11.07;;
20888;SDS011;10604;51.976;7.594;2023-01-28T06:54:21;12.50;;;9.83;;
20888;SDS011;10604;51.976;7.594;2023-01-28T06:56:46;9.03;;;7.57;;
20888;SDS011;10604;51.976;7.594;2023-01-28T06:59:11;8.82;;;7.95;;
20888;SDS011;10604;51.976;7.594;2023-01-28T07:01:37;6.97;;;6.37;;
20888;SDS011;10604;51.976;7.594;2023-01-28T07:04:03;7.60;;;6.40;;
20888;SDS011;10604;51.976;7.594;2023-01-28T07:06:28;7.07;;;6.38;;
20888;SDS011;10604;51.976;7.594;2023-01-28T07:08:54;7.10;;;6.40;;
20888;SDS011;10604;51.976;7.594;2023-01-28T07:11:19;6.40;;;5.90;;
20888;SDS011;10604;51.976;7.594;2023-01-28T07:13:44;6.32;;;5.72;;
20888;SDS011;10604;51.976;7.594;2023-01-28T07:16:11;5.88;;;5.28;;
20888;SDS011;10604;51.976;7.594;2023-01-28T07:18:37;5.85;;;5.30;;
20888;SDS011;10604;51.976;7.594;2023-01-28T07:21:02;6.10;;;5.50;;
20888;SDS011;10604;51.976;7.594;2023-01-28T07:23:28;6.38;;;5.78;;
20888;SDS011;10604;51.976;7.594;2023-01-28T07:25:53;6.97;;;6.27;;
20888;SDS011;10604;51.976;7.594;2023-01-28T07:28:19;6.73;;;6.13;;
20888;SDS011;10604;51.976;7.594;2023-01-28T07:30:49;6.60;;;5.93;;
20888;SDS011;10604;51.976;7.594;2023-01-28T07:33:14;6.60;;;6.00;;
20888;SDS011;10604;51.976;7.594;2023-01-28T07:35:41;6.80;;;6.10;;
20888;SDS011;10604;51.976;7.594;2023-01-28T07:38:06;6.53;;;5.90;;
20888;SDS011;10604;51.976;7.594;2023-01-28T07:40:31;6.23;;;5.63;;
20888;SDS011;10604;51.976;7.594;2023-01-28T07:42:57;7.00;;;6.33;;
20888;SDS011;10604;51.976;7.594;2023-01-28T07:45:23;10.03;;;9.03;;
20888;SDS011;10604;51.976;7.594;2023-01-28T07:47:52;8.65;;;7.75;;
20888;SDS011;10604;51.976;7.594;2023-01-28T07:50:21;7.30;;;6.60;;
20888;SDS011;10604;51.976;7.594;2023-01-28T07:52:47;7.68;;;6.97;;
20888;SDS011;10604;51.976;7.594;2023-01-28T07:55:13;7.40;;;6.70;;
20888;SDS011;10604;51.976;7.594;2023-01-28T07:57:47;7.78;;;6.97;;
20888;SDS011;10604;51.976;7.594;2023-01-28T08:00:16;7.30;;;6.60;;
20888;SDS011;10604;51.976;7.594;2023-01-28T08:02:42;7.95;;;7.25;;
20888;SDS011;10604;51.976;7.594;2023-01-28T08:05:13;6.93;;;6.30;;
20888;SDS011;10604;51.976;7.594;2023-01-28T08:07:39;6.72;;;6.07;;
20888;SDS011;10604;51.976;7.594;2023-01-28T08:10:05;7.00;;;6.30;;
20888;SDS011;10604;51.976;7.594;2023-01-28T08:12:30;6.30;;;5.70;;
20888;SDS011;10604;51.976;7.594;2023-01-28T08:14:56;6.97;;;6.33;;
20888;SDS011;10604;51.976;7.594;2023-01-28T08:17:21;7.07;;;6.47;;
20888;SDS011;10604;51.976;7.594;2023-01-28T08:19:47;8.37;;;7.60;;
20888;SDS011;10604;51.976;7.594;2023-01-28T08:22:12;9.05;;;8.00;;
20888;SDS011;10604;51.976;7.594;2023-01-28T08:24:37;7.47;;;6.60;;
20888;SDS011;10604;51.976;7.594;2023-01-28T08:27:03;7.80;;;7.10;;
20888;SDS011;10604;51.976;7.594;2023-01-28T08:29:28;6.90;;;6.30;;
20888;SDS011;10604;51.976;7.594;2023-01-28T08:31:54;9.32;;;7.97;;
20888;SDS011;10604;51.976;7.594;2023-01-28T08:34:19;7.80;;;6.60;;
20888;SDS011;10604;51.976;7.594;2023-01-28T08:36:44;6.60;;;6.00;;
20888;SDS011;10604;51.976;7.594;2023-01-28T08:39:10;6.37;;;5.80;;
20888;SDS011;10604;51.976;7.594;2023-01-28T08:41:35;6.97;;;6.30;;
20888;SDS011;10604;51.976;7.594;2023-01-28T08:44:00;7.30;;;5.88;;
20888;SDS011;10604;51.976;7.594;2023-01-28T08:46:26;6.60;;;5.43;;
20888;SDS011;10604;51.976;7.594;2023-01-28T08:48:51;7.90;;;6.43;;
20888;SDS011;10604;51.976;7.594;2023-01-28T08:51:16;6.70;;;5.77;;
20888;SDS011;10604;51.976;7.594;2023-01-28T08:53:42;6.53;;;5.60;;
20888;SDS011;10604;51.976;7.594;2023-01-28T08:56:07;7.07;;;5.90;;
20888;SDS011;10604;51.976;7.594;2023-01-28T08:58:32;6.72;;;6.05;;
20888;SDS011;10604;51.976;7.594;2023-01-28T09:01:02;7.10;;;6.40;;
20888;SDS011;10604;51.976;7.594;2023-01-28T09:03:28;7.15;;;6.53;;
20888;SDS011;10604;51.976;7.594;2023-01-28T09:05:58;6.90;;;5.73;;
20888;SDS011;10604;51.976;7.594;2023-01-28T09:08:24;9.10;;;8.02;;
20888;SDS011;10604;51.976;7.594;2023-01-28T09:10:53;6.80;;;5.97;;
20888;SDS011;10604;51.976;7.594;2023-01-28T09:13:19;5.75;;;5.22;;
20888;SDS011;10604;51.976;7.594;2023-01-28T09:15:44;5.67;;;5.17;;
20888;SDS011;10604;51.976;7.594;2023-01-28T09:18:10;6.80;;;5.95;;
20888;SDS011;10604;51.976;7.594;2023-01-28T09:20:35;6.20;;;5.60;;
20888;SDS011;10604;51.976;7.594;2023-01-28T09:23:01;6.87;;;6.17;;
20888;SDS011;10604;51.976;7.594;2023-01-28T09:25:26;7.40;;;6.32;;
20888;SDS011;10604;51.976;7.594;2023-01-28T09:27:52;7.20;;;6.50;;
20888;SDS011;10604;51.976;7.594;2023-01-28T09:30:17;7.47;;;6.67;;
20888;SDS011;10604;51.976;7.594;2023-01-28T09:32:42;7.50;;;6.80;;
20888;SDS011;10604;51.976;7.594;2023-01-28T09:35:08;8.60;;;7.72;;
20888;SDS011;10604;51.976;7.594;2023-01-28T09:37:34;8.40;;;7.65;;
20888;SDS011;10604;51.976;7.594;2023-01-28T09:40:00;9.47;;;8.27;;
20888;SDS011;10604;51.976;7.594;2023-01-28T09:47:39;10.48;;;9.55;;
20888;SDS011;10604;51.976;7.594;2023-01-28T09:50:11;10.38;;;9.40;;
20888;SDS011;10604;51.976;7.594;2023-01-28T09:52:41;11.13;;;10.13;;
20888;SDS011;10604;51.976;7.594;2023-01-28T09:58:04;11.18;;;10.13;;
20888;SDS011;10604;51.976;7.594;2023-01-28T10:00:37;12.90;;;10.70;;
20888;SDS011;10604;51.976;7.594;2023-01-28T10:03:22;11.18;;;10.13;;
20888;SDS011;10604;51.976;7.594;2023-01-28T10:06:18;12.40;;;11.02;;
20888;SDS011;10604;51.976;7.594;2023-01-28T10:14:10;14.45;;;13.05;;
20888;SDS011;10604;51.976;7.594;2023-01-28T10:17:03;14.18;;;12.82;;
20888;SDS011;10604;51.976;7.594;2023-01-28T10:19:44;15.33;;;13.93;;
20888;SDS011;10604;51.976;7.594;2023-01-28T10:22:59;14.85;;;13.25;;
20888;SDS011;10604;51.976;7.594;2023-01-28T10:25:16;14.25;;;12.77;;
20888;SDS011;10604;51.976;7.594;2023-01-28T10:27:44;14.75;;;13.32;;
20888;SDS011;10604;51.976;7.594;2023-01-28T10:30:19;16.13;;;14.52;;
20888;SDS011;10604;51.976;7.594;2023-01-28T10:32:56;14.23;;;12.93;;
20888;SDS011;10604;51.976;7.594;2023-01-28T10:35:27;14.95;;;13.48;;
20888;SDS011;10604;51.976;7.594;2023-01-28T10:37:59;16.15;;;14.55;;
20888;SDS011;10604;51.976;7.594;2023-01-28T10:40:30;17.33;;;15.63;;
20888;SDS011;10604;51.976;7.594;2023-01-28T10:42:55;17.13;;;15.20;;
20888;SDS011;10604;51.976;7.594;2023-01-28T10:45:25;15.87;;;14.33;;
20888;SDS011;10604;51.976;7.594;2023-01-28T10:50:37;16.55;;;14.80;;
20888;SDS011;10604;51.976;7.594;2023-01-28T10:53:13;16.52;;;15.00;;
20888;SDS011;10604;51.976;7.594;2023-01-28T10:55:52;16.57;;;14.90;;
20888;SDS011;10604;51.976;7.594;2023-01-28T10:58:26;17.67;;;15.50;;
20888;SDS011;10604;51.976;7.594;2023-01-28T11:00:56;16.88;;;15.27;;
20888;SDS011;10604;51.976;7.594;2023-01-28T11:03:25;17.52;;;15.73;;
20888;SDS011;10604;51.976;7.594;2023-01-28T11:05:55;20.10;;;18.08;;
20888;SDS011;10604;51.976;7.594;2023-01-28T11:08:22;18.05;;;16.13;;
20888;SDS011;10604;51.976;7.594;2023-01-28T11:10:49;18.27;;;16.48;;
20888;SDS011;10604;51.976;7.594;2023-01-28T11:13:20;19.65;;;17.55;;
20888;SDS011;10604;51.976;7.594;2023-01-28T11:18:17;19.88;;;17.90;;
20888;SDS011;10604;51.976;7.594;2023-01-28T11:20:49;20.57;;;18.37;;
20888;SDS011;10604;51.976;7.594;2023-01-28T11:23:18;19.65;;;17.58;;
20888;SDS011;10604;51.976;7.594;2023-01-28T11:25:48;19.60;;;17.63;;
20888;SDS011;10604;51.976;7.594;2023-01-28T11:28:23;18.53;;;16.80;;
20888;SDS011;10604;51.976;7.594;2023-01-28T11:30:50;18.80;;;16.88;;
20888;SDS011;10604;51.976;7.594;2023-01-28T11:33:30;19.42;;;17.63;;
20888;SDS011;10604;51.976;7.594;2023-01-28T11:36:05;22.98;;;20.88;;
20888;SDS011;10604;51.976;7.594;2023-01-28T11:39:13;22.30;;;20.10;;
20888;SDS011;10604;51.976;7.594;2023-01-28T11:41:42;17.83;;;16.00;;
20888;SDS011;10604;51.976;7.594;2023-01-28T11:46:46;17.30;;;15.63;;
20888;SDS011;10604;51.976;7.594;2023-01-28T11:55:17;17.67;;;15.87;;
20888;SDS011;10604;51.976;7.594;2023-01-28T12:00:31;17.70;;;16.00;;
20888;SDS011;10604;51.976;7.594;2023-01-28T12:05:45;16.23;;;14.57;;
20888;SDS011;10604;51.976;7.594;2023-01-28T12:11:02;15.20;;;13.70;;
20888;SDS011;10604;51.976;7.594;2023-01-28T12:16:33;15.93;;;14.43;;
20888;SDS011;10604;51.976;7.594;2023-01-28T12:22:19;19.30;;;17.50;;
20888;SDS011;10604;51.976;7.594;2023-01-28T12:28:16;22.65;;;20.55;;
20888;SDS011;10604;51.976;7.594;2023-01-28T12:41:52;15.77;;;14.27;;
20888;SDS011;10604;51.976;7.594;2023-01-28T12:44:31;16.73;;;14.93;;
20888;SDS011;10604;51.976;7.594;2023-01-28T12:47:04;16.95;;;15.25;;
20888;SDS011;10604;51.976;7.594;2023-01-28T12:49:52;19.23;;;17.33;;
20888;SDS011;10604;51.976;7.594;2023-01-28T12:52:27;16.33;;;14.83;;
20888;SDS011;10604;51.976;7.594;2023-01-28T12:57:44;14.63;;;13.13;;
20888;SDS011;10604;51.976;7.594;2023-01-28T13:02:52;15.63;;;14.10;;
20888;SDS011;10604;51.976;7.594;2023-01-28T13:05:39;13.63;;;12.30;;
20888;SDS011;10604;51.976;7.594;2023-01-28T13:10:48;13.43;;;12.13;;
20888;SDS011;10604;51.976;7.594;2023-01-28T13:16:01;13.70;;;12.20;;
20888;SDS011;10604;51.976;7.594;2023-01-28T13:20:56;13.70;;;12.40;;
20888;SDS011;10604;51.976;7.594;2023-01-28T13:23:36;14.25;;;12.75;;
20888;SDS011;10604;51.976;7.594;2023-01-28T13:26:40;13.75;;;12.02;;
20888;SDS011;10604;51.976;7.594;2023-01-28T13:31:40;13.23;;;11.93;;
20888;SDS011;10604;51.976;7.594;2023-01-28T13:34:09;13.70;;;12.30;;
20888;SDS011;10604;51.976;7.594;2023-01-28T13:36:51;13.85;;;12.35;;
20888;SDS011;10604;51.976;7.594;2023-01-28T13:39:21;13.25;;;11.95;;
20888;SDS011;10604;51.976;7.594;2023-01-28T13:44:35;12.53;;;11.33;;
20888;SDS011;10604;51.976;7.594;2023-01-28T13:54:39;13.73;;;12.30;;
20888;SDS011;10604;51.976;7.594;2023-01-28T14:20:04;16.98;;;15.20;;
20888;SDS011;10604;51.976;7.594;2023-01-28T14:22:39;14.80;;;13.30;;
20888;SDS011;10604;51.976;7.594;2023-01-28T14:25:10;15.70;;;14.02;;
20888;SDS011;10604;51.976;7.594;2023-01-28T14:27:39;15.52;;;13.52;;
20888;SDS011;10604;51.976;7.594;2023-01-28T14:32:49;14.83;;;13.23;;
20888;SDS011;10604;51.976;7.594;2023-01-28T14:35:27;16.55;;;14.13;;
20888;SDS011;10604;51.976;7.594;2023-01-28T14:37:55;14.88;;;13.15;;
20888;SDS011;10604;51.976;7.594;2023-01-28T14:40:23;14.18;;;12.75;;
20888;SDS011;10604;51.976;7.594;2023-01-28T14:42:50;14.98;;;13.48;;
20888;SDS011;10604;51.976;7.594;2023-01-28T14:58:38;14.75;;;13.15;;
20888;SDS011;10604;51.976;7.594;2023-01-28T15:01:22;13.80;;;12.50;;
20888;SDS011;10604;51.976;7.594;2023-01-28T15:03:50;15.73;;;14.00;;
20888;SDS011;10604;51.976;7.594;2023-01-28T15:06:16;43.35;;;30.35;;
20888;SDS011;10604;51.976;7.594;2023-01-28T15:08:48;33.20;;;24.20;;
20888;SDS011;10604;51.976;7.594;2023-01-28T15:11:23;31.38;;;23.60;;
20888;SDS011;10604;51.976;7.594;2023-01-28T15:13:51;26.67;;;19.52;;
20888;SDS011;10604;51.976;7.594;2023-01-28T15:16:21;19.52;;;16.60;;
20888;SDS011;10604;51.976;7.594;2023-01-28T15:18:49;22.00;;;18.17;;
20888;SDS011;10604;51.976;7.594;2023-01-28T15:21:19;19.58;;;16.90;;
20888;SDS011;10604;51.976;7.594;2023-01-28T15:23:46;24.95;;;19.67;;
20888;SDS011;10604;51.976;7.594;2023-01-28T15:26:26;30.02;;;21.65;;
20888;SDS011;10604;51.976;7.594;2023-01-28T15:28:54;23.13;;;18.13;;
20888;SDS011;10604;51.976;7.594;2023-01-28T15:31:27;18.23;;;15.20;;
20888;SDS011;10604;51.976;7.594;2023-01-28T15:33:58;16.77;;;14.98;;
20888;SDS011;10604;51.976;7.594;2023-01-28T15:36:24;16.00;;;14.43;;
20888;SDS011;10604;51.976;7.594;2023-01-28T15:38:51;15.77;;;13.80;;
20888;SDS011;10604;51.976;7.594;2023-01-28T15:41:17;15.65;;;13.90;;
20888;SDS011;10604;51.976;7.594;2023-01-28T15:43:45;15.75;;;14.10;;
20888;SDS011;10604;51.976;7.594;2023-01-28T15:46:13;15.75;;;13.98;;
20888;SDS011;10604;51.976;7.594;2023-01-28T15:48:51;16.00;;;14.40;;
20888;SDS011;10604;51.976;7.594;2023-01-28T15:51:28;15.68;;;14.05;;
20888;SDS011;10604;51.976;7.594;2023-01-28T15:53:56;15.03;;;13.43;;
20888;SDS011;10604;51.976;7.594;2023-01-28T15:56:28;14.93;;;13.43;;
20888;SDS011;10604;51.976;7.594;2023-01-28T15:58:55;14.60;;;13.00;;
20888;SDS011;10604;51.976;7.594;2023-01-28T16:01:31;19.45;;;16.42;;
20888;SDS011;10604;51.976;7.594;2023-01-28T16:06:35;17.37;;;15.30;;
20888;SDS011;10604;51.976;7.594;2023-01-28T16:09:06;16.50;;;14.77;;
20888;SDS011;10604;51.976;7.594;2023-01-28T16:11:42;18.20;;;15.43;;
20888;SDS011;10604;51.976;7.594;2023-01-28T16:16:49;16.90;;;15.15;;
20888;SDS011;10604;51.976;7.594;2023-01-28T16:19:58;16.95;;;15.15;;
20888;SDS011;10604;51.976;7.594;2023-01-28T16:22:07;16.88;;;15.15;;
20888;SDS011;10604;51.976;7.594;2023-01-28T16:24:49;16.75;;;14.52;;
20888;SDS011;10604;51.976;7.594;2023-01-28T16:29:46;16.30;;;14.60;;
20888;SDS011;10604;51.976;7.594;2023-01-28T16:34:53;15.77;;;14.10;;
20888;SDS011;10604;51.976;7.594;2023-01-28T16:37:19;15.83;;;13.60;;
20888;SDS011;10604;51.976;7.594;2023-01-28T16:39:44;16.13;;;14.10;;
20888;SDS011;10604;51.976;7.594;2023-01-28T16:42:09;16.17;;;14.33;;
20888;SDS011;10604;51.976;7.594;2023-01-28T16:44:35;18.83;;;15.20;;
20888;SDS011;10604;51.976;7.594;2023-01-28T16:47:00;17.40;;;15.55;;
20888;SDS011;10604;51.976;7.594;2023-01-28T16:49:26;18.15;;;15.52;;
20888;SDS011;10604;51.976;7.594;2023-01-28T16:51:52;30.77;;;24.03;;
20888;SDS011;10604;51.976;7.594;2023-01-28T16:54:17;32.20;;;23.63;;
20888;SDS011;10604;51.976;7.594;2023-01-28T16:56:43;21.10;;;18.80;;
20888;SDS011;10604;51.976;7.594;2023-01-28T16:59:11;20.43;;;17.03;;
20888;SDS011;10604;51.976;7.594;2023-01-28T17:01:38;19.83;;;17.25;;
20888;SDS011;10604;51.976;7.594;2023-01-28T17:04:04;21.33;;;18.55;;
20888;SDS011;10604;51.976;7.594;2023-01-28T17:06:33;22.20;;;17.88;;
20888;SDS011;10604;51.976;7.594;2023-01-28T17:08:58;23.23;;;20.17;;
20888;SDS011;10604;51.976;7.594;2023-01-28T17:11:27;25.02;;;22.25;;
20888;SDS011;10604;51.976;7.594;2023-01-28T17:13:52;26.00;;;22.85;;
20888;SDS011;10604;51.976;7.594;2023-01-28T17:16:18;25.77;;;22.57;;
20888;SDS011;10604;51.976;7.594;2023-01-28T17:18:43;24.43;;;20.23;;
20888;SDS011;10604;51.976;7.594;2023-01-28T17:21:09;23.30;;;19.90;;
20888;SDS011;10604;51.976;7.594;2023-01-28T17:23:35;21.67;;;18.75;;